Aérodrome :
LOGIN :

S'inscrire | Disclaimer

   EN    FR    IT 

 










Légende :    VFR   VFR Marginal   IFR   IFR Intensif   IFR Très Intensif
Visi : 
Plafond : 
>= 8 km
>= 3000ft
5 à 8 km
1000 à 3000 ft
1500m à 5 km
500 à 1000 ft
800 à 1500m
200 à 500 ft
< 800m
< 200 ft
Symboles :   Orages  Brouillard  Fortes neiges  Fortes précipitations  Vent > 20 kt
SIGMETs :   Divers  Orages  Givrage  Turbulence  Onde Orograph.  Cendres Volcan.







- Altitude de l'aérodrome : 87 ft
- Code IATA : AHO


LIEA - Fertilia Alghero

DERNIER METAR :
  • 221120Z 05012KT 020V080 CAVOK 21/05 Q1016

METARs EXPIRÉS :
  • 221050Z 07010KT 010V120 CAVOK 20/06 Q1017
  • 221020Z 08012KT CAVOK 19/07 Q1017
  • 220950Z 07012KT 040V100 CAVOK 19/07 Q1017
  • 220920Z 06011KT 030V100 CAVOK 19/06 Q1016
  • 220850Z 08010KT CAVOK 18/07 Q1017

TAF TAF LIEA
Valide du 22 à 12h jusqu'au 23 à 12h UTC


221100Z 2212/2312 03015G25KT CAVOK
Pas de NOTAMs connus pour ce terrain.
1 SIGMET publié pour la FIR Roma (LIRR) :
 
Orages noyés dans la masse
LIRR SIGMET 5 VALID 221100/221200 LIIB
LIRR ROMA FIR EMBD TS FCST E OF LINE N3907 E01750 - N3615 E01702 TOP ABV FL320 MOV E NC=



MET'MAP, la Météo Aéronautique d'un coup d'oeil ! - Copyright ORBIFLY Décembre 2007 - Disclaimer

ORBIFLY MET'MAP TEAM :

Programmation & Développement : Alexandra Zaïnal
Conception & Développement : Baudouin d'Aumeries
Co-Programmation & Développement : Marc-Olivier Méhu
Soutien technique & logistique : Manuel Goepfert

Contact : metmap@orbifly.com




SOURCES & CREDITS :

   NOAA